sensor_id;sensor_type;location;lat;lon;timestamp;pressure;altitude;pressure_sealevel;temperature;humidity
56681;BME280;42558;52.388;13.390;2022-08-21T00:01:51;101077.73;;;18.05;100.00
56681;BME280;42558;52.388;13.390;2022-08-21T00:04:19;101077.04;;;18.04;100.00
56681;BME280;42558;52.388;13.390;2022-08-21T00:06:50;101079.35;;;18.06;100.00
56681;BME280;42558;52.388;13.390;2022-08-21T00:09:18;101083.08;;;18.04;100.00
56681;BME280;42558;52.388;13.390;2022-08-21T00:11:47;101078.29;;;18.03;100.00
56681;BME280;42558;52.388;13.390;2022-08-21T00:14:15;101075.25;;;18.06;100.00
56681;BME280;42558;52.388;13.390;2022-08-21T00:16:42;101074.17;;;18.06;100.00
56681;BME280;42558;52.388;13.390;2022-08-21T00:19:09;101069.20;;;18.05;100.00
56681;BME280;42558;52.388;13.390;2022-08-21T00:21:36;101069.77;;;18.03;100.00
56681;BME280;42558;52.388;13.390;2022-08-21T00:24:04;101067.86;;;17.98;100.00
56681;BME280;42558;52.388;13.390;2022-08-21T00:26:33;101067.71;;;17.95;100.00
56681;BME280;42558;52.388;13.390;2022-08-21T00:29:02;101070.07;;;17.93;100.00
56681;BME280;42558;52.388;13.390;2022-08-21T00:31:29;101067.94;;;17.91;100.00
56681;BME280;42558;52.388;13.390;2022-08-21T00:33:56;101068.11;;;17.91;100.00
56681;BME280;42558;52.388;13.390;2022-08-21T00:36:27;101071.16;;;17.90;100.00
56681;BME280;42558;52.388;13.390;2022-08-21T00:38:55;101072.81;;;17.86;100.00
56681;BME280;42558;52.388;13.390;2022-08-21T00:41:22;101073.16;;;17.85;100.00
56681;BME280;42558;52.388;13.390;2022-08-21T00:44:12;101073.17;;;17.86;100.00
56681;BME280;42558;52.388;13.390;2022-08-21T00:46:42;101075.86;;;17.83;100.00
56681;BME280;42558;52.388;13.390;2022-08-21T00:49:11;101074.45;;;17.82;100.00
56681;BME280;42558;52.388;13.390;2022-08-21T00:51:50;101072.52;;;17.81;100.00
56681;BME280;42558;52.388;13.390;2022-08-21T00:54:22;101075.02;;;17.78;100.00
56681;BME280;42558;52.388;13.390;2022-08-21T00:56:59;101074.84;;;17.78;100.00
56681;BME280;42558;52.388;13.390;2022-08-21T00:59:31;101074.86;;;17.77;100.00
56681;BME280;42558;52.388;13.390;2022-08-21T01:01:59;101076.83;;;17.76;100.00
56681;BME280;42558;52.388;13.390;2022-08-21T01:04:26;101076.14;;;17.75;100.00
56681;BME280;42558;52.388;13.390;2022-08-21T01:06:53;101077.77;;;17.72;100.00
56681;BME280;42558;52.388;13.390;2022-08-21T01:09:21;101079.89;;;17.69;100.00
56681;BME280;42558;52.388;13.390;2022-08-21T01:11:48;101081.33;;;17.68;100.00
56681;BME280;42558;52.388;13.390;2022-08-21T01:14:16;101080.98;;;17.68;100.00
56681;BME280;42558;52.388;13.390;2022-08-21T01:16:50;101080.11;;;17.65;100.00
56681;BME280;42558;52.388;13.390;2022-08-21T01:19:20;101079.27;;;17.61;100.00
56681;BME280;42558;52.388;13.390;2022-08-21T01:21:48;101083.83;;;17.66;100.00
56681;BME280;42558;52.388;13.390;2022-08-21T01:24:15;101084.19;;;17.68;100.00
56681;BME280;42558;52.388;13.390;2022-08-21T01:26:43;101082.05;;;17.66;100.00
56681;BME280;42558;52.388;13.390;2022-08-21T01:29:41;101078.88;;;17.63;100.00
56681;BME280;42558;52.388;13.390;2022-08-21T01:32:15;101080.55;;;17.57;100.00
56681;BME280;42558;52.388;13.390;2022-08-21T01:34:46;101083.40;;;17.56;100.00
56681;BME280;42558;52.388;13.390;2022-08-21T01:37:15;101083.09;;;17.53;100.00
56681;BME280;42558;52.388;13.390;2022-08-21T01:39:45;101080.42;;;17.51;100.00
56681;BME280;42558;52.388;13.390;2022-08-21T01:42:14;101079.73;;;17.49;100.00
56681;BME280;42558;52.388;13.390;2022-08-21T01:44:42;101079.95;;;17.46;100.00
56681;BME280;42558;52.388;13.390;2022-08-21T01:47:12;101080.88;;;17.41;100.00
56681;BME280;42558;52.388;13.390;2022-08-21T01:49:43;101081.45;;;17.36;100.00
56681;BME280;42558;52.388;13.390;2022-08-21T01:52:11;101085.05;;;17.32;100.00
56681;BME280;42558;52.388;13.390;2022-08-21T01:54:38;101091.86;;;17.27;100.00
56681;BME280;42558;52.388;13.390;2022-08-21T01:57:06;101090.67;;;17.20;100.00
56681;BME280;42558;52.388;13.390;2022-08-21T01:59:33;101091.23;;;17.16;100.00
56681;BME280;42558;52.388;13.390;2022-08-21T02:02:00;101093.05;;;17.13;100.00
56681;BME280;42558;52.388;13.390;2022-08-21T02:04:27;101094.83;;;17.10;100.00
56681;BME280;42558;52.388;13.390;2022-08-21T02:06:54;101095.37;;;17.09;100.00
56681;BME280;42558;52.388;13.390;2022-08-21T02:09:21;101094.70;;;17.06;100.00
56681;BME280;42558;52.388;13.390;2022-08-21T02:11:50;101090.07;;;17.04;100.00
56681;BME280;42558;52.388;13.390;2022-08-21T02:14:18;101082.44;;;17.04;100.00
56681;BME280;42558;52.388;13.390;2022-08-21T02:16:59;101080.48;;;17.04;100.00
56681;BME280;42558;52.388;13.390;2022-08-21T02:19:34;101077.98;;;17.07;100.00
56681;BME280;42558;52.388;13.390;2022-08-21T02:22:10;101076.52;;;17.10;100.00
56681;BME280;42558;52.388;13.390;2022-08-21T02:24:39;101080.23;;;17.14;100.00
56681;BME280;42558;52.388;13.390;2022-08-21T02:27:24;101078.30;;;17.13;100.00
56681;BME280;42558;52.388;13.390;2022-08-21T02:29:57;101074.20;;;17.13;100.00
56681;BME280;42558;52.388;13.390;2022-08-21T02:32:25;101075.65;;;17.09;100.00
56681;BME280;42558;52.388;13.390;2022-08-21T02:34:52;101075.51;;;17.06;100.00
56681;BME280;42558;52.388;13.390;2022-08-21T02:37:21;101081.06;;;16.99;100.00
56681;BME280;42558;52.388;13.390;2022-08-21T02:39:49;101083.78;;;16.91;100.00
56681;BME280;42558;52.388;13.390;2022-08-21T02:42:17;101082.41;;;16.86;100.00
56681;BME280;42558;52.388;13.390;2022-08-21T02:44:44;101078.35;;;16.81;100.00
56681;BME280;42558;52.388;13.390;2022-08-21T02:47:11;101076.95;;;16.76;100.00
56681;BME280;42558;52.388;13.390;2022-08-21T02:49:38;101077.50;;;16.75;100.00
56681;BME280;42558;52.388;13.390;2022-08-21T02:52:05;101078.59;;;16.74;100.00
56681;BME280;42558;52.388;13.390;2022-08-21T02:54:32;101077.70;;;16.72;100.00
56681;BME280;42558;52.388;13.390;2022-08-21T02:56:59;101074.33;;;16.69;100.00
56681;BME280;42558;52.388;13.390;2022-08-21T02:59:26;101079.30;;;16.68;100.00
56681;BME280;42558;52.388;13.390;2022-08-21T03:01:53;101084.09;;;16.68;100.00
56681;BME280;42558;52.388;13.390;2022-08-21T03:04:20;101085.88;;;16.65;100.00
56681;BME280;42558;52.388;13.390;2022-08-21T03:06:48;101086.25;;;16.62;100.00
56681;BME280;42558;52.388;13.390;2022-08-21T03:09:15;101087.70;;;16.58;100.00
56681;BME280;42558;52.388;13.390;2022-08-21T03:11:41;101082.23;;;16.53;100.00
56681;BME280;42558;52.388;13.390;2022-08-21T03:14:08;101082.95;;;16.53;100.00
56681;BME280;42558;52.388;13.390;2022-08-21T03:16:35;101080.27;;;16.53;100.00
56681;BME280;42558;52.388;13.390;2022-08-21T03:19:02;101080.10;;;16.53;100.00
56681;BME280;42558;52.388;13.390;2022-08-21T03:21:29;101078.67;;;16.53;100.00
56681;BME280;42558;52.388;13.390;2022-08-21T03:23:56;101077.42;;;16.55;100.00
56681;BME280;42558;52.388;13.390;2022-08-21T03:26:23;101074.95;;;16.52;100.00
56681;BME280;42558;52.388;13.390;2022-08-21T03:28:52;101079.57;;;16.53;100.00
56681;BME280;42558;52.388;13.390;2022-08-21T03:31:19;101079.05;;;16.51;100.00
56681;BME280;42558;52.388;13.390;2022-08-21T03:33:48;101077.66;;;16.45;100.00
56681;BME280;42558;52.388;13.390;2022-08-21T03:36:15;101076.60;;;16.42;100.00
56681;BME280;42558;52.388;13.390;2022-08-21T03:38:42;101081.05;;;16.39;100.00
56681;BME280;42558;52.388;13.390;2022-08-21T03:41:09;101080.56;;;16.34;100.00
56681;BME280;42558;52.388;13.390;2022-08-21T03:43:36;101080.38;;;16.34;100.00
56681;BME280;42558;52.388;13.390;2022-08-21T03:46:04;101084.30;;;16.30;100.00
56681;BME280;42558;52.388;13.390;2022-08-21T03:48:35;101081.98;;;16.30;100.00
56681;BME280;42558;52.388;13.390;2022-08-21T03:51:04;101080.95;;;16.27;100.00
56681;BME280;42558;52.388;13.390;2022-08-21T03:53:31;101080.77;;;16.23;100.00
56681;BME280;42558;52.388;13.390;2022-08-21T03:55:58;101081.86;;;16.18;100.00
56681;BME280;42558;52.388;13.390;2022-08-21T03:58:27;101084.20;;;16.14;100.00
56681;BME280;42558;52.388;13.390;2022-08-21T04:00:59;101085.80;;;16.12;100.00
56681;BME280;42558;52.388;13.390;2022-08-21T04:03:27;101087.59;;;16.08;100.00
56681;BME280;42558;52.388;13.390;2022-08-21T04:05:54;101090.27;;;16.01;100.00
56681;BME280;42558;52.388;13.390;2022-08-21T04:08:21;101091.67;;;16.03;100.00
56681;BME280;42558;52.388;13.390;2022-08-21T04:10:52;101094.89;;;15.99;100.00
56681;BME280;42558;52.388;13.390;2022-08-21T04:13:21;101098.56;;;16.10;100.00
56681;BME280;42558;52.388;13.390;2022-08-21T04:15:48;101100.89;;;16.11;100.00
56681;BME280;42558;52.388;13.390;2022-08-21T04:18:16;101107.47;;;16.00;100.00
56681;BME280;42558;52.388;13.390;2022-08-21T04:20:46;101101.27;;;15.96;100.00
56681;BME280;42558;52.388;13.390;2022-08-21T04:23:19;101106.77;;;15.94;100.00
56681;BME280;42558;52.388;13.390;2022-08-21T04:25:51;101101.82;;;15.92;100.00
56681;BME280;42558;52.388;13.390;2022-08-21T04:28:19;101100.60;;;15.87;100.00
56681;BME280;42558;52.388;13.390;2022-08-21T04:30:46;101099.91;;;15.80;100.00
56681;BME280;42558;52.388;13.390;2022-08-21T04:33:13;101103.27;;;15.81;100.00
56681;BME280;42558;52.388;13.390;2022-08-21T04:35:40;101101.31;;;15.84;100.00
56681;BME280;42558;52.388;13.390;2022-08-21T04:38:08;101097.06;;;15.81;100.00
56681;BME280;42558;52.388;13.390;2022-08-21T04:40:35;101102.05;;;15.79;100.00
56681;BME280;42558;52.388;13.390;2022-08-21T04:43:07;101099.72;;;15.82;100.00
56681;BME280;42558;52.388;13.390;2022-08-21T04:45:42;101102.23;;;15.79;100.00
56681;BME280;42558;52.388;13.390;2022-08-21T04:48:15;101112.30;;;15.78;100.00
56681;BME280;42558;52.388;13.390;2022-08-21T04:55:56;101113.21;;;15.70;100.00
56681;BME280;42558;52.388;13.390;2022-08-21T04:58:28;101113.94;;;15.69;100.00
56681;BME280;42558;52.388;13.390;2022-08-21T05:00:58;101113.23;;;15.69;100.00
56681;BME280;42558;52.388;13.390;2022-08-21T05:03:28;101118.19;;;15.69;100.00
56681;BME280;42558;52.388;13.390;2022-08-21T05:05:58;101118.53;;;15.70;100.00
56681;BME280;42558;52.388;13.390;2022-08-21T05:08:27;101119.60;;;15.76;100.00
56681;BME280;42558;52.388;13.390;2022-08-21T05:10:55;101117.64;;;15.76;100.00
56681;BME280;42558;52.388;13.390;2022-08-21T05:13:27;101120.12;;;15.78;100.00
56681;BME280;42558;52.388;13.390;2022-08-21T05:15:54;101122.78;;;15.78;100.00
56681;BME280;42558;52.388;13.390;2022-08-21T05:18:21;101122.24;;;15.77;100.00
56681;BME280;42558;52.388;13.390;2022-08-21T05:20:47;101126.67;;;15.77;100.00
56681;BME280;42558;52.388;13.390;2022-08-21T05:23:15;101129.52;;;15.80;100.00
56681;BME280;42558;52.388;13.390;2022-08-21T05:25:42;101122.42;;;15.80;100.00
56681;BME280;42558;52.388;13.390;2022-08-21T05:28:11;101128.61;;;15.84;100.00
56681;BME280;42558;52.388;13.390;2022-08-21T05:30:39;101123.80;;;15.95;100.00
56681;BME280;42558;52.388;13.390;2022-08-21T05:33:07;101124.17;;;15.93;100.00
56681;BME280;42558;52.388;13.390;2022-08-21T05:35:34;101130.00;;;16.00;100.00
56681;BME280;42558;52.388;13.390;2022-08-21T05:38:03;101128.23;;;16.01;100.00
56681;BME280;42558;52.388;13.390;2022-08-21T05:40:32;101133.19;;;16.01;100.00
56681;BME280;42558;52.388;13.390;2022-08-21T05:43:00;101135.67;;;16.00;100.00
56681;BME280;42558;52.388;13.390;2022-08-21T05:45:31;101136.39;;;15.99;100.00
56681;BME280;42558;52.388;13.390;2022-08-21T05:48:17;101132.66;;;16.01;100.00
56681;BME280;42558;52.388;13.390;2022-08-21T05:50:47;101137.46;;;15.98;100.00
56681;BME280;42558;52.388;13.390;2022-08-21T05:53:18;101137.80;;;16.03;100.00
56681;BME280;42558;52.388;13.390;2022-08-21T05:55:45;101136.91;;;16.06;100.00
56681;BME280;42558;52.388;13.390;2022-08-21T05:58:17;101137.80;;;16.07;100.00
56681;BME280;42558;52.388;13.390;2022-08-21T06:00:47;101142.05;;;16.04;100.00
56681;BME280;42558;52.388;13.390;2022-08-21T06:03:19;101140.98;;;16.05;100.00
56681;BME280;42558;52.388;13.390;2022-08-21T06:05:47;101139.04;;;16.02;100.00
56681;BME280;42558;52.388;13.390;2022-08-21T06:08:17;101140.98;;;16.04;100.00
56681;BME280;42558;52.388;13.390;2022-08-21T06:10:46;101138.67;;;16.07;100.00
56681;BME280;42558;52.388;13.390;2022-08-21T06:13:16;101132.25;;;16.19;100.00
56681;BME280;42558;52.388;13.390;2022-08-21T06:15:43;101135.44;;;16.17;100.00
56681;BME280;42558;52.388;13.390;2022-08-21T06:18:11;101140.05;;;16.19;100.00
56681;BME280;42558;52.388;13.390;2022-08-21T06:20:38;101142.88;;;16.23;100.00
56681;BME280;42558;52.388;13.390;2022-08-21T06:23:05;101141.29;;;16.21;100.00
56681;BME280;42558;52.388;13.390;2022-08-21T06:25:33;101137.73;;;16.21;100.00
56681;BME280;42558;52.388;13.390;2022-08-21T06:28:07;101140.05;;;16.21;100.00
56681;BME280;42558;52.388;13.390;2022-08-21T06:30:38;101143.58;;;16.25;100.00
56681;BME280;42558;52.388;13.390;2022-08-21T06:33:06;101142.66;;;16.33;100.00
56681;BME280;42558;52.388;13.390;2022-08-21T06:35:34;101146.17;;;16.40;100.00
56681;BME280;42558;52.388;13.390;2022-08-21T06:38:03;101145.98;;;16.44;100.00
56681;BME280;42558;52.388;13.390;2022-08-21T06:40:31;101149.16;;;16.50;100.00
56681;BME280;42558;52.388;13.390;2022-08-21T06:43:11;101149.45;;;16.64;100.00
56681;BME280;42558;52.388;13.390;2022-08-21T06:45:41;101152.63;;;16.68;100.00
56681;BME280;42558;52.388;13.390;2022-08-21T06:48:09;101153.35;;;16.63;100.00
56681;BME280;42558;52.388;13.390;2022-08-21T06:50:39;101147.12;;;16.68;100.00
56681;BME280;42558;52.388;13.390;2022-08-21T06:53:10;101151.03;;;16.70;100.00
56681;BME280;42558;52.388;13.390;2022-08-21T06:55:40;101148.52;;;16.77;100.00
56681;BME280;42558;52.388;13.390;2022-08-21T06:58:08;101148.27;;;16.88;100.00
56681;BME280;42558;52.388;13.390;2022-08-21T07:00:40;101145.52;;;17.03;99.97
56681;BME280;42558;52.388;13.390;2022-08-21T07:03:16;101146.47;;;17.20;99.77
56681;BME280;42558;52.388;13.390;2022-08-21T07:05:43;101148.23;;;17.19;98.05
56681;BME280;42558;52.388;13.390;2022-08-21T07:08:10;101143.52;;;17.34;98.45
56681;BME280;42558;52.388;13.390;2022-08-21T07:10:37;101142.05;;;17.38;96.97
56681;BME280;42558;52.388;13.390;2022-08-21T07:13:04;101137.59;;;17.41;96.77
56681;BME280;42558;52.388;13.390;2022-08-21T07:15:32;101139.52;;;17.44;96.60
56681;BME280;42558;52.388;13.390;2022-08-21T07:17:59;101140.35;;;17.50;96.32
56681;BME280;42558;52.388;13.390;2022-08-21T07:20:29;101142.89;;;17.45;94.48
56681;BME280;42558;52.388;13.390;2022-08-21T07:23:02;101143.84;;;17.37;94.40
56681;BME280;42558;52.388;13.390;2022-08-21T07:25:29;101137.30;;;17.54;95.76
56681;BME280;42558;52.388;13.390;2022-08-21T07:27:57;101138.73;;;17.73;95.67
56681;BME280;42558;52.388;13.390;2022-08-21T07:30:25;101138.79;;;17.88;92.96
56681;BME280;42558;52.388;13.390;2022-08-21T07:32:53;101133.97;;;17.89;91.45
56681;BME280;42558;52.388;13.390;2022-08-21T07:35:22;101132.64;;;17.97;90.39
56681;BME280;42558;52.388;13.390;2022-08-21T07:37:50;101130.76;;;18.06;90.58
56681;BME280;42558;52.388;13.390;2022-08-21T07:40:17;101132.48;;;18.25;89.95
56681;BME280;42558;52.388;13.390;2022-08-21T07:42:46;101135.98;;;18.45;89.72
56681;BME280;42558;52.388;13.390;2022-08-21T07:45:17;101132.00;;;18.64;88.97
56681;BME280;42558;52.388;13.390;2022-08-21T07:47:44;101137.26;;;18.71;86.78
56681;BME280;42558;52.388;13.390;2022-08-21T07:50:13;101134.66;;;18.78;85.61
56681;BME280;42558;52.388;13.390;2022-08-21T07:52:41;101136.62;;;18.92;85.29
56681;BME280;42558;52.388;13.390;2022-08-21T07:55:15;101140.11;;;18.97;85.10
56681;BME280;42558;52.388;13.390;2022-08-21T07:57:42;101138.17;;;18.95;84.38
56681;BME280;42558;52.388;13.390;2022-08-21T08:00:15;101138.45;;;19.12;83.24
56681;BME280;42558;52.388;13.390;2022-08-21T08:02:46;101135.21;;;19.13;82.02
56681;BME280;42558;52.388;13.390;2022-08-21T08:05:20;101130.14;;;19.29;82.13
56681;BME280;42558;52.388;13.390;2022-08-21T08:07:48;101128.02;;;19.49;82.02
56681;BME280;42558;52.388;13.390;2022-08-21T08:10:16;101125.00;;;19.39;78.19
56681;BME280;42558;52.388;13.390;2022-08-21T08:12:45;101122.83;;;19.51;78.29
56681;BME280;42558;52.388;13.390;2022-08-21T08:15:21;101121.92;;;19.73;76.31
56681;BME280;42558;52.388;13.390;2022-08-21T08:17:48;101118.27;;;19.88;75.21
56681;BME280;42558;52.388;13.390;2022-08-21T08:20:17;101115.35;;;19.90;73.28
56681;BME280;42558;52.388;13.390;2022-08-21T08:22:45;101120.30;;;19.74;73.80
56681;BME280;42558;52.388;13.390;2022-08-21T08:25:18;101127.09;;;19.73;74.53
56681;BME280;42558;52.388;13.390;2022-08-21T08:27:45;101129.46;;;19.90;74.09
56681;BME280;42558;52.388;13.390;2022-08-21T08:30:16;101130.23;;;19.97;74.36
56681;BME280;42558;52.388;13.390;2022-08-21T08:32:43;101128.95;;;20.25;73.56
56681;BME280;42558;52.388;13.390;2022-08-21T08:35:11;101125.86;;;20.28;69.87
56681;BME280;42558;52.388;13.390;2022-08-21T08:37:42;101127.73;;;20.15;71.35
56681;BME280;42558;52.388;13.390;2022-08-21T08:40:46;101130.75;;;19.97;67.73
56681;BME280;42558;52.388;13.390;2022-08-21T08:43:14;101124.74;;;19.94;69.08
56681;BME280;42558;52.388;13.390;2022-08-21T08:45:47;101130.62;;;20.05;69.62
56681;BME280;42558;52.388;13.390;2022-08-21T08:48:49;101124.81;;;19.91;66.80
56681;BME280;42558;52.388;13.390;2022-08-21T08:51:49;101126.05;;;19.91;66.58
56681;BME280;42558;52.388;13.390;2022-08-21T08:54:31;101121.36;;;19.65;64.39
56681;BME280;42558;52.388;13.390;2022-08-21T08:57:03;101117.32;;;19.71;65.79
56681;BME280;42558;52.388;13.390;2022-08-21T08:59:49;101116.52;;;19.66;66.27
56681;BME280;42558;52.388;13.390;2022-08-21T09:02:19;101115.39;;;19.59;66.18
56681;BME280;42558;52.388;13.390;2022-08-21T09:04:50;101110.55;;;19.62;65.72
56681;BME280;42558;52.388;13.390;2022-08-21T09:07:41;101112.23;;;19.66;65.43
56681;BME280;42558;52.388;13.390;2022-08-21T09:10:37;101114.07;;;19.73;65.59
56681;BME280;42558;52.388;13.390;2022-08-21T09:13:26;101111.25;;;19.81;65.08
56681;BME280;42558;52.388;13.390;2022-08-21T09:16:16;101112.42;;;19.95;65.29
56681;BME280;42558;52.388;13.390;2022-08-21T09:24:40;101115.39;;;19.97;66.91
56681;BME280;42558;52.388;13.390;2022-08-21T09:27:19;101118.09;;;20.06;65.21
56681;BME280;42558;52.388;13.390;2022-08-21T09:29:51;101117.63;;;20.02;65.39
56681;BME280;42558;52.388;13.390;2022-08-21T09:32:28;101114.19;;;19.96;67.03
56681;BME280;42558;52.388;13.390;2022-08-21T09:37:55;101111.64;;;20.25;66.15
56681;BME280;42558;52.388;13.390;2022-08-21T09:40:59;101117.35;;;20.33;66.18
56681;BME280;42558;52.388;13.390;2022-08-21T09:43:27;101108.19;;;20.36;65.72
56681;BME280;42558;52.388;13.390;2022-08-21T09:46:19;101109.63;;;20.54;64.70
56681;BME280;42558;52.388;13.390;2022-08-21T09:48:51;101106.36;;;20.47;63.53
56681;BME280;42558;52.388;13.390;2022-08-21T09:51:22;101105.66;;;20.72;65.37
56681;BME280;42558;52.388;13.390;2022-08-21T09:54:12;101105.41;;;20.66;63.63
56681;BME280;42558;52.388;13.390;2022-08-21T09:59:56;101105.38;;;20.68;63.24
56681;BME280;42558;52.388;13.390;2022-08-21T10:02:36;101104.05;;;20.79;61.89
56681;BME280;42558;52.388;13.390;2022-08-21T10:05:19;101105.74;;;20.83;59.95
56681;BME280;42558;52.388;13.390;2022-08-21T10:07:46;101106.31;;;20.82;61.69
56681;BME280;42558;52.388;13.390;2022-08-21T10:10:29;101105.11;;;20.87;59.26
56681;BME280;42558;52.388;13.390;2022-08-21T10:18:41;101103.27;;;20.97;59.87
56681;BME280;42558;52.388;13.390;2022-08-21T10:21:23;101105.88;;;21.22;59.37
56681;BME280;42558;52.388;13.390;2022-08-21T10:24:13;101102.23;;;21.47;58.73
56681;BME280;42558;52.388;13.390;2022-08-21T10:27:16;101098.64;;;21.68;55.24
56681;BME280;42558;52.388;13.390;2022-08-21T10:29:55;101098.70;;;21.45;54.36
56681;BME280;42558;52.388;13.390;2022-08-21T10:35:28;101101.46;;;21.35;54.15
56681;BME280;42558;52.388;13.390;2022-08-21T10:44:46;101098.25;;;21.69;53.60
56681;BME280;42558;52.388;13.390;2022-08-21T10:47:30;101099.77;;;21.73;52.59
56681;BME280;42558;52.388;13.390;2022-08-21T10:50:17;101102.41;;;21.73;51.38
56681;BME280;42558;52.388;13.390;2022-08-21T10:56:09;101094.15;;;21.94;49.56
56681;BME280;42558;52.388;13.390;2022-08-21T11:01:39;101095.56;;;22.15;48.51
56681;BME280;42558;52.388;13.390;2022-08-21T11:04:28;101095.48;;;22.30;47.49
56681;BME280;42558;52.388;13.390;2022-08-21T11:08:07;101100.29;;;22.72;48.70
56681;BME280;42558;52.388;13.390;2022-08-21T11:10:46;101103.38;;;22.89;44.94
56681;BME280;42558;52.388;13.390;2022-08-21T11:13:40;101092.95;;;22.61;45.60
56681;BME280;42558;52.388;13.390;2022-08-21T11:16:39;101089.74;;;22.53;45.65
56681;BME280;42558;52.388;13.390;2022-08-21T11:19:17;101090.45;;;22.84;45.92
56681;BME280;42558;52.388;13.390;2022-08-21T11:21:58;101087.35;;;22.97;44.61
56681;BME280;42558;52.388;13.390;2022-08-21T11:24:33;101085.24;;;22.90;43.14
56681;BME280;42558;52.388;13.390;2022-08-21T11:27:26;101083.93;;;22.92;42.86
56681;BME280;42558;52.388;13.390;2022-08-21T11:30:00;101088.02;;;22.80;42.55
56681;BME280;42558;52.388;13.390;2022-08-21T11:32:54;101084.84;;;22.74;44.06
56681;BME280;42558;52.388;13.390;2022-08-21T11:35:45;101083.63;;;22.72;42.47
56681;BME280;42558;52.388;13.390;2022-08-21T11:38:35;101085.05;;;22.78;41.96
56681;BME280;42558;52.388;13.390;2022-08-21T11:41:29;101078.77;;;22.67;42.50
56681;BME280;42558;52.388;13.390;2022-08-21T11:44:21;101079.07;;;22.63;41.88
56681;BME280;42558;52.388;13.390;2022-08-21T11:47:13;101082.30;;;22.69;43.35
56681;BME280;42558;52.388;13.390;2022-08-21T11:49:57;101081.01;;;22.58;42.48
56681;BME280;42558;52.388;13.390;2022-08-21T11:52:43;101075.73;;;22.32;43.73
56681;BME280;42558;52.388;13.390;2022-08-21T11:55:19;101080.79;;;22.59;44.31
56681;BME280;42558;52.388;13.390;2022-08-21T11:58:06;101079.05;;;22.81;44.49
56681;BME280;42558;52.388;13.390;2022-08-21T12:00:47;101073.77;;;22.72;44.43
56681;BME280;42558;52.388;13.390;2022-08-21T12:06:06;101072.85;;;22.73;43.79
56681;BME280;42558;52.388;13.390;2022-08-21T12:08:45;101068.83;;;22.58;43.78
56681;BME280;42558;52.388;13.390;2022-08-21T12:16:36;101064.36;;;22.62;42.98
56681;BME280;42558;52.388;13.390;2022-08-21T12:21:31;101068.92;;;23.12;42.82
56681;BME280;42558;52.388;13.390;2022-08-21T12:26:54;101063.61;;;22.93;41.47
56681;BME280;42558;52.388;13.390;2022-08-21T12:29:37;101066.06;;;22.89;41.90
56681;BME280;42558;52.388;13.390;2022-08-21T12:34:44;101069.91;;;23.03;40.51
56681;BME280;42558;52.388;13.390;2022-08-21T12:37:34;101066.31;;;23.03;40.04
56681;BME280;42558;52.388;13.390;2022-08-21T12:40:28;101063.05;;;23.04;40.33
56681;BME280;42558;52.388;13.390;2022-08-21T12:43:00;101057.21;;;22.91;41.33
56681;BME280;42558;52.388;13.390;2022-08-21T12:45:38;101054.84;;;23.14;40.81
56681;BME280;42558;52.388;13.390;2022-08-21T12:48:41;101048.23;;;23.14;41.96
56681;BME280;42558;52.388;13.390;2022-08-21T12:51:18;101055.77;;;23.08;40.37
56681;BME280;42558;52.388;13.390;2022-08-21T12:53:53;101054.19;;;23.02;40.66
56681;BME280;42558;52.388;13.390;2022-08-21T12:56:29;101053.60;;;23.08;41.31
56681;BME280;42558;52.388;13.390;2022-08-21T12:59:06;101056.08;;;23.10;41.91
56681;BME280;42558;52.388;13.390;2022-08-21T13:02:15;101049.29;;;23.24;39.39
56681;BME280;42558;52.388;13.390;2022-08-21T13:04:44;101050.46;;;23.00;40.09
56681;BME280;42558;52.388;13.390;2022-08-21T13:07:22;101050.38;;;23.08;41.17
56681;BME280;42558;52.388;13.390;2022-08-21T13:09:57;101049.00;;;23.12;41.07
56681;BME280;42558;52.388;13.390;2022-08-21T13:12:25;101052.30;;;23.26;41.42
56681;BME280;42558;52.388;13.390;2022-08-21T13:15:04;101052.13;;;23.31;41.54
56681;BME280;42558;52.388;13.390;2022-08-21T13:17:46;101053.43;;;23.34;42.76
56681;BME280;42558;52.388;13.390;2022-08-21T13:20:27;101046.08;;;23.13;43.24
56681;BME280;42558;52.388;13.390;2022-08-21T13:22:54;101047.70;;;23.07;43.41
56681;BME280;42558;52.388;13.390;2022-08-21T13:25:29;101045.27;;;23.11;43.54
56681;BME280;42558;52.388;13.390;2022-08-21T13:28:08;101040.97;;;23.21;43.81
56681;BME280;42558;52.388;13.390;2022-08-21T13:30:54;101038.13;;;23.36;44.51
56681;BME280;42558;52.388;13.390;2022-08-21T13:33:25;101047.52;;;23.34;44.15
56681;BME280;42558;52.388;13.390;2022-08-21T13:36:27;101054.85;;;23.35;44.33
56681;BME280;42558;52.388;13.390;2022-08-21T13:38:56;101055.51;;;23.32;44.43
56681;BME280;42558;52.388;13.390;2022-08-21T13:41:31;101055.35;;;22.99;45.32
56681;BME280;42558;52.388;13.390;2022-08-21T13:44:13;101052.30;;;23.15;45.74
56681;BME280;42558;52.388;13.390;2022-08-21T13:46:47;101048.80;;;23.33;45.24
56681;BME280;42558;52.388;13.390;2022-08-21T13:49:22;101048.65;;;23.38;45.47
56681;BME280;42558;52.388;13.390;2022-08-21T13:51:52;101045.23;;;23.33;46.11
56681;BME280;42558;52.388;13.390;2022-08-21T13:54:41;101050.26;;;23.58;46.45
56681;BME280;42558;52.388;13.390;2022-08-21T13:57:33;101052.00;;;23.49;46.56
56681;BME280;42558;52.388;13.390;2022-08-21T14:00:19;101047.39;;;23.58;46.59
56681;BME280;42558;52.388;13.390;2022-08-21T14:02:50;101043.05;;;23.48;45.86